createdAt,value
2022-08-20T00:00:27.661Z,92676.34
2022-08-20T00:01:59.735Z,92668.09
2022-08-20T00:03:32.429Z,92675.59
2022-08-20T00:05:04.293Z,92673.63
2022-08-20T00:06:36.064Z,92665.72
2022-08-20T00:08:08.245Z,92671.66
2022-08-20T00:09:39.918Z,92675.25
2022-08-20T00:11:12.242Z,92676.06
2022-08-20T00:12:45.162Z,92670.94
2022-08-20T00:14:17.176Z,92674.03
2022-08-20T00:15:50.205Z,92672.44
2022-08-20T00:17:22.007Z,92670.16
2022-08-20T00:18:53.925Z,92667.44
2022-08-20T00:20:26.636Z,92668.63
2022-08-20T00:21:58.656Z,92663.56
2022-08-20T00:23:30.325Z,92662.00
2022-08-20T00:25:02.271Z,92665.53
2022-08-20T00:26:34.568Z,92657.69
2022-08-20T00:28:08.485Z,92655.31
2022-08-20T00:29:40.307Z,92649.44
2022-08-20T00:31:12.481Z,92645.56
2022-08-20T00:32:48.001Z,92648.00
2022-08-20T00:34:19.765Z,92648.84
2022-08-20T00:35:53.289Z,92643.38
2022-08-20T00:37:25.007Z,92633.97
2022-08-20T00:38:56.571Z,92643.81
2022-08-20T00:40:30.348Z,92643.88
2022-08-20T00:42:01.941Z,92636.03
2022-08-20T00:43:37.267Z,92639.19
2022-08-20T00:45:09.313Z,92636.84
2022-08-20T00:46:41.220Z,92635.69
2022-08-20T00:48:12.985Z,92636.09
2022-08-20T00:49:47.372Z,92630.63
2022-08-20T00:51:27.423Z,92631.41
2022-08-20T00:53:02.882Z,92619.63
2022-08-20T00:54:44.957Z,92622.75
2022-08-20T00:56:17.090Z,92614.13
2022-08-20T00:58:00.487Z,92610.19
2022-08-20T00:59:33.666Z,92608.63
2022-08-20T01:01:05.813Z,92607.06
2022-08-20T01:02:37.723Z,92615.69
2022-08-20T01:04:11.267Z,92609.06
2022-08-20T01:05:44.860Z,92607.91
2022-08-20T01:07:16.422Z,92610.25
2022-08-20T01:08:48.259Z,92607.84
2022-08-20T01:10:21.213Z,92604.69
2022-08-20T01:11:53.521Z,92598.41
2022-08-20T01:13:26.042Z,92600.75
2022-08-20T01:14:58.875Z,92607.84
2022-08-20T01:16:31.610Z,92602.34
2022-08-20T01:18:03.197Z,92602.34
2022-08-20T01:19:39.508Z,92604.69
2022-08-20T01:21:11.285Z,92605.47
2022-08-20T01:23:04.405Z,92603.91
2022-08-20T01:24:36.791Z,92609.81
2022-08-20T01:26:10.012Z,92607.06
2022-08-20T01:27:42.727Z,92609.00
2022-08-20T01:29:21.255Z,92619.63
2022-08-20T01:30:53.250Z,92617.31
2022-08-20T01:32:25.276Z,92612.63
2022-08-20T01:33:57.615Z,92622.47
2022-08-20T01:35:29.553Z,92621.34
2022-08-20T01:37:01.319Z,92620.16
2022-08-20T01:38:33.049Z,92624.50
2022-08-20T01:40:04.830Z,92624.91
2022-08-20T01:41:53.637Z,92620.63
2022-08-20T01:43:25.575Z,92622.66
2022-08-20T01:44:57.521Z,92619.88
2022-08-20T01:46:35.679Z,92631.72
2022-08-20T01:48:09.740Z,92629.38
2022-08-20T01:49:45.313Z,92628.63
2022-08-20T01:51:18.366Z,92619.59
2022-08-20T01:52:51.251Z,92624.72
2022-08-20T01:54:23.157Z,92620.78
2022-08-20T01:55:55.177Z,92621.97
2022-08-20T01:57:27.278Z,92621.19
2022-08-20T01:58:59.602Z,92629.44
2022-08-20T02:00:32.613Z,92618.44
2022-08-20T02:02:07.146Z,92621.63
2022-08-20T02:03:42.924Z,92619.72
2022-08-20T02:05:16.158Z,92620.94
2022-08-20T02:06:56.325Z,92623.28
2022-08-20T02:08:29.589Z,92622.13
2022-08-20T02:10:01.545Z,92620.97
2022-08-20T02:11:34.583Z,92611.94
2022-08-20T02:13:07.673Z,92616.28
2022-08-20T02:14:43.082Z,92619.81
2022-08-20T02:16:14.823Z,92615.53
2022-08-20T02:17:46.432Z,92621.81
2022-08-20T02:19:19.101Z,92620.63
2022-08-20T02:20:51.532Z,92621.81
2022-08-20T02:22:44.225Z,92620.66
2022-08-20T02:24:22.287Z,92625.75
2022-08-20T02:25:54.036Z,92626.94
2022-08-20T02:27:25.572Z,92625.72
2022-08-20T02:28:57.578Z,92627.31
2022-08-20T02:30:33.947Z,92633.56
2022-08-20T02:32:28.339Z,92630.44
2022-08-20T02:34:22.134Z,92630.00
2022-08-20T02:35:50.065Z,92637.44
2022-08-20T02:37:21.861Z,92637.38
2022-08-20T02:38:53.765Z,92631.50
2022-08-20T02:40:31.098Z,92632.28
2022-08-20T02:42:04.200Z,92630.72
2022-08-20T02:43:36.526Z,92632.25
2022-08-20T02:45:08.675Z,92630.28
2022-08-20T02:46:47.095Z,92624.00
2022-08-20T02:48:21.117Z,92627.13
2022-08-20T02:49:54.442Z,92630.25
2022-08-20T02:51:30.484Z,92627.91
2022-08-20T02:53:02.375Z,92625.50
2022-08-20T02:54:34.473Z,92620.81
2022-08-20T02:56:06.441Z,92629.78
2022-08-20T02:57:38.616Z,92616.13
2022-08-20T02:59:10.379Z,92624.72
2022-08-20T03:00:50.626Z,92626.31
2022-08-20T03:02:22.708Z,92625.16
2022-08-20T03:03:57.169Z,92633.03
2022-08-20T03:05:28.718Z,92631.03
2022-08-20T03:07:00.428Z,92627.84
2022-08-20T03:08:32.111Z,92630.13
2022-08-20T03:10:03.866Z,92626.22
2022-08-20T03:11:35.983Z,92634.00
2022-08-20T03:13:11.488Z,92631.94
2022-08-20T03:14:43.357Z,92631.53
2022-08-20T03:16:14.933Z,92632.31
2022-08-20T03:17:47.036Z,92630.34
2022-08-20T03:19:18.737Z,92637.03
2022-08-20T03:20:52.175Z,92632.72
2022-08-20T03:22:23.943Z,92624.47
2022-08-20T03:23:56.629Z,92629.16
2022-08-20T03:25:29.238Z,92625.25
2022-08-20T03:27:00.774Z,92626.44
2022-08-20T03:28:32.476Z,92627.22
2022-08-20T03:30:08.594Z,92628.34
2022-08-20T03:31:40.330Z,92627.53
2022-08-20T03:33:11.928Z,92622.06
2022-08-20T03:34:43.728Z,92619.69
2022-08-20T03:36:15.389Z,92614.56
2022-08-20T03:37:52.552Z,92611.06
2022-08-20T03:39:25.743Z,92619.66
2022-08-20T03:40:57.966Z,92626.75
2022-08-20T03:42:29.650Z,92628.34
2022-08-20T03:44:01.226Z,92626.81
2022-08-20T03:45:33.356Z,92635.03
2022-08-20T03:47:09.745Z,92637.84
2022-08-20T03:48:41.447Z,92630.38
2022-08-20T03:50:14.692Z,92633.91
2022-08-20T03:51:58.020Z,92630.38
2022-08-20T03:53:32.997Z,92631.53
2022-08-20T03:55:05.396Z,92630.69
2022-08-20T03:56:37.409Z,92625.63
2022-08-20T03:58:09.167Z,92628.78
2022-08-20T03:59:41.216Z,92632.31
2022-08-20T04:01:44.794Z,92627.63
2022-08-20T04:03:05.117Z,92625.66
2022-08-20T04:04:36.718Z,92626.81
2022-08-20T04:06:08.300Z,92617.38
2022-08-20T04:07:40.507Z,92616.59
2022-08-20T04:09:12.384Z,92624.38
2022-08-20T04:10:45.696Z,92626.63
2022-08-20T04:12:17.946Z,92634.44
2022-08-20T04:13:49.639Z,92631.34
2022-08-20T04:15:21.483Z,92628.63
2022-08-20T04:16:53.009Z,92631.41
2022-08-20T04:18:25.859Z,92634.56
2022-08-20T04:19:57.420Z,92638.88
2022-08-20T04:21:32.707Z,92645.94
2022-08-20T04:23:05.271Z,92641.25
2022-08-20T04:24:37.517Z,92645.19
2022-08-20T04:26:09.322Z,92652.25
2022-08-20T04:27:40.910Z,92660.47
2022-08-20T04:29:12.761Z,92664.78
2022-08-20T04:30:47.433Z,92652.69
2022-08-20T04:32:23.506Z,92651.13
2022-08-20T04:33:55.209Z,92650.81
2022-08-20T04:35:26.984Z,92646.91
2022-08-20T04:36:58.654Z,92640.25
2022-08-20T04:38:49.856Z,92649.28
2022-08-20T04:40:40.732Z,92643.81
2022-08-20T04:42:12.345Z,92648.53
2022-08-20T04:43:44.014Z,92637.22
2022-08-20T04:45:15.664Z,92648.97
2022-08-20T04:46:47.389Z,92650.53
2022-08-20T04:48:19.253Z,92648.94
2022-08-20T04:49:50.863Z,92657.16
2022-08-20T04:51:23.220Z,92652.06
2022-08-20T04:52:57.506Z,92654.84
2022-08-20T04:54:29.265Z,92660.31
2022-08-20T04:56:01.379Z,92659.16
2022-08-20T04:57:33.285Z,92657.22
2022-08-20T04:59:05.142Z,92660.34
2022-08-20T05:00:36.797Z,92661.56
2022-08-20T05:02:08.598Z,92660.78
2022-08-20T05:03:40.582Z,92658.03
2022-08-20T05:05:12.244Z,92656.09
2022-08-20T05:06:44.843Z,92654.50
2022-08-20T05:08:16.735Z,92656.09
2022-08-20T05:09:51.805Z,92649.88
2022-08-20T05:11:32.620Z,92648.31
2022-08-20T05:13:07.476Z,92645.59
2022-08-20T05:14:39.044Z,92635.47
2022-08-20T05:16:11.262Z,92634.34
2022-08-20T05:17:43.053Z,92630.03
2022-08-20T05:19:14.670Z,92627.31
2022-08-20T05:20:46.515Z,92627.31
2022-08-20T05:22:18.588Z,92630.84
2022-08-20T05:23:50.260Z,92634.38
2022-08-20T05:25:22.229Z,92633.97
2022-08-20T05:26:56.177Z,92635.16
2022-08-20T05:28:30.495Z,92644.59
2022-08-20T05:30:07.612Z,92648.09
2022-08-20T05:31:42.583Z,92641.81
2022-08-20T05:33:17.063Z,92645.31
2022-08-20T05:34:49.325Z,92647.66
2022-08-20T05:36:21.930Z,92648.47
2022-08-20T05:37:54.261Z,92643.00
2022-08-20T05:39:26.522Z,92652.41
2022-08-20T05:40:58.112Z,92653.97
2022-08-20T05:42:30.658Z,92658.63
2022-08-20T05:44:02.322Z,92658.22
2022-08-20T05:45:35.424Z,92665.28
2022-08-20T05:47:07.119Z,92659.38
2022-08-20T05:48:40.182Z,92657.81
2022-08-20T05:50:20.660Z,92655.44
2022-08-20T05:51:55.103Z,92661.34
2022-08-20T05:53:27.105Z,92660.97
2022-08-20T05:54:58.771Z,92661.34
2022-08-20T05:56:30.985Z,92651.56
2022-08-20T05:58:05.874Z,92663.66
2022-08-20T05:59:39.712Z,92660.91
2022-08-20T06:01:12.121Z,92653.41
2022-08-20T06:03:02.234Z,92663.59
2022-08-20T06:04:34.418Z,92662.41
2022-08-20T06:06:17.875Z,92654.59
2022-08-20T06:08:07.094Z,92661.25
2022-08-20T06:09:42.276Z,92655.81
2022-08-20T06:11:16.130Z,92657.75
2022-08-20T06:12:47.798Z,92654.97
2022-08-20T06:14:20.474Z,92657.69
2022-08-20T06:15:52.311Z,92656.50
2022-08-20T06:17:23.934Z,92659.97
2022-08-20T06:18:55.869Z,92660.72
2022-08-20T06:20:30.838Z,92649.28
2022-08-20T06:22:08.652Z,92656.63
2022-08-20T06:23:57.714Z,92641.53
2022-08-20T06:25:37.933Z,92644.19
2022-08-20T06:27:09.704Z,92643.31
2022-08-20T06:28:41.469Z,92646.38
2022-08-20T06:30:13.570Z,92646.59
2022-08-20T06:31:46.517Z,92634.97
2022-08-20T06:33:18.142Z,92644.59
2022-08-20T06:34:51.547Z,92638.50
2022-08-20T06:36:25.100Z,92641.69
2022-08-20T06:38:00.548Z,92638.72
2022-08-20T06:39:32.355Z,92631.38
2022-08-20T06:41:04.280Z,92633.56
2022-08-20T06:42:36.545Z,92627.34
2022-08-20T06:44:08.776Z,92633.44
2022-08-20T06:45:40.976Z,92629.19
2022-08-20T06:47:14.613Z,92635.78
2022-08-20T06:48:46.230Z,92630.03
2022-08-20T06:50:19.042Z,92621.75
2022-08-20T06:51:52.041Z,92622.81
2022-08-20T06:53:24.839Z,92621.38
2022-08-20T06:54:56.393Z,92617.78
2022-08-20T06:56:28.255Z,92619.94
2022-08-20T06:58:00.768Z,92624.47
2022-08-20T06:59:32.903Z,92625.97
2022-08-20T07:01:08.738Z,92630.81
2022-08-20T07:02:43.067Z,92632.16
2022-08-20T07:04:15.966Z,92628.50
2022-08-20T07:05:47.575Z,92626.66
2022-08-20T07:07:20.020Z,92629.13
2022-08-20T07:08:52.464Z,92631.09
2022-08-20T07:10:25.362Z,92626.66
2022-08-20T07:11:57.525Z,92629.34
2022-08-20T07:13:29.236Z,92632.56
2022-08-20T07:15:00.865Z,92631.72
2022-08-20T07:16:33.109Z,92633.13
2022-08-20T07:18:05.095Z,92626.56
2022-08-20T07:19:36.926Z,92627.41
2022-08-20T07:21:08.557Z,92629.41
2022-08-20T07:22:41.153Z,92623.53
2022-08-20T07:24:12.824Z,92624.78
2022-08-20T07:25:44.763Z,92624.72
2022-08-20T07:27:20.310Z,92633.91
2022-08-20T07:28:52.286Z,92624.41
2022-08-20T07:30:56.829Z,92629.91
2022-08-20T07:32:37.139Z,92620.97
2022-08-20T07:34:11.844Z,92633.59
2022-08-20T07:35:44.208Z,92630.13
2022-08-20T07:37:15.856Z,92624.31
2022-08-20T07:38:48.499Z,92623.97
2022-08-20T07:40:25.853Z,92620.34
2022-08-20T07:42:03.857Z,92623.00
2022-08-20T07:43:35.565Z,92616.19
2022-08-20T07:45:09.014Z,92615.78
2022-08-20T07:46:40.624Z,92607.94
2022-08-20T07:48:12.926Z,92611.50
2022-08-20T07:50:01.404Z,92615.88
2022-08-20T07:51:33.076Z,92623.56
2022-08-20T07:53:04.887Z,92623.47
2022-08-20T07:54:38.205Z,92628.69
2022-08-20T07:56:11.473Z,92629.81
2022-08-20T07:57:43.888Z,92623.28
2022-08-20T07:59:15.983Z,92624.84
2022-08-20T08:00:47.972Z,92620.94
2022-08-20T08:02:20.188Z,92624.94
2022-08-20T08:03:52.174Z,92624.06
2022-08-20T08:05:24.150Z,92623.63
2022-08-20T08:06:57.840Z,92622.06
2022-08-20T08:08:29.851Z,92623.84
2022-08-20T08:10:01.784Z,92624.50
2022-08-20T08:11:33.910Z,92620.59
2022-08-20T08:13:06.349Z,92620.16
2022-08-20T08:14:37.954Z,92615.72
2022-08-20T08:16:09.683Z,92618.34
2022-08-20T08:17:42.154Z,92613.41
2022-08-20T08:19:15.213Z,92612.81
2022-08-20T08:20:47.414Z,92606.91
2022-08-20T08:22:19.702Z,92612.81
2022-08-20T08:23:51.598Z,92614.63
2022-08-20T08:25:23.613Z,92613.38
2022-08-20T08:26:55.264Z,92606.19
2022-08-20T08:28:29.790Z,92600.28
2022-08-20T08:30:01.649Z,92603.16
2022-08-20T08:31:34.033Z,92604.13
2022-08-20T08:33:24.299Z,92607.50
2022-08-20T08:34:56.184Z,92607.06
2022-08-20T08:36:27.976Z,92600.78
2022-08-20T08:38:02.013Z,92599.72
2022-08-20T08:39:34.901Z,92601.81
2022-08-20T08:41:22.709Z,92596.50
2022-08-20T08:42:58.579Z,92593.38
2022-08-20T08:44:31.627Z,92594.09
2022-08-20T08:46:06.702Z,92589.22
2022-08-20T08:47:39.334Z,92592.31
2022-08-20T08:49:13.109Z,92597.13
2022-08-20T08:50:53.483Z,92591.66
2022-08-20T08:52:30.050Z,92592.28
2022-08-20T08:54:06.662Z,92593.34
2022-08-20T08:55:39.014Z,92596.00
2022-08-20T08:57:10.790Z,92593.59
2022-08-20T08:58:44.065Z,92593.59
2022-08-20T09:00:19.787Z,92597.72
2022-08-20T09:01:56.589Z,92584.81
2022-08-20T09:03:31.285Z,92587.25
2022-08-20T09:05:03.600Z,92589.06
2022-08-20T09:06:35.441Z,92589.44
2022-08-20T09:08:07.845Z,92585.63
2022-08-20T09:09:39.892Z,92578.81
2022-08-20T09:11:11.737Z,92589.97
2022-08-20T09:12:47.763Z,92586.31
2022-08-20T09:14:20.423Z,92593.66
2022-08-20T09:15:52.096Z,92583.50
2022-08-20T09:17:24.482Z,92584.88
2022-08-20T09:18:56.173Z,92589.16
2022-08-20T09:20:27.957Z,92581.09
2022-08-20T09:21:59.591Z,92585.81
2022-08-20T09:23:31.469Z,92586.97
2022-08-20T09:25:06.794Z,92589.38
2022-08-20T09:26:39.252Z,92582.81
2022-08-20T09:28:11.238Z,92589.16
2022-08-20T09:29:45.152Z,92587.97
2022-08-20T09:31:18.295Z,92579.94
2022-08-20T09:32:50.221Z,92582.22
2022-08-20T09:34:21.813Z,92582.13
2022-08-20T09:35:53.464Z,92576.56
2022-08-20T09:37:25.657Z,92584.38
2022-08-20T09:38:57.385Z,92576.00
2022-08-20T09:40:29.088Z,92581.31
2022-08-20T09:42:20.559Z,92578.69
2022-08-20T09:43:52.766Z,92579.84
2022-08-20T09:45:25.173Z,92573.66
2022-08-20T09:46:56.817Z,92572.56
2022-08-20T09:48:32.086Z,92583.59
2022-08-20T09:50:04.638Z,92576.88
2022-08-20T09:51:36.474Z,92578.34
2022-08-20T09:53:10.142Z,92580.59
2022-08-20T09:54:46.273Z,92579.91
2022-08-20T09:56:18.863Z,92582.69
2022-08-20T09:57:50.645Z,92579.13
2022-08-20T09:59:22.309Z,92578.81
2022-08-20T10:00:54.227Z,92583.25
2022-08-20T10:02:27.182Z,92588.94
2022-08-20T10:04:00.383Z,92583.34
2022-08-20T10:05:32.013Z,92581.50
2022-08-20T10:07:06.873Z,92580.53
2022-08-20T10:08:38.751Z,92576.72
2022-08-20T10:10:11.312Z,92584.63
2022-08-20T10:11:43.066Z,92579.59
2022-08-20T10:13:15.443Z,92574.19
2022-08-20T10:14:47.684Z,92574.63
2022-08-20T10:16:19.729Z,92564.59
2022-08-20T10:17:51.985Z,92570.78
2022-08-20T10:19:23.662Z,92576.56
2022-08-20T10:20:56.377Z,92565.88
2022-08-20T10:22:27.978Z,92570.53
2022-08-20T10:23:59.709Z,92570.13
2022-08-20T10:25:31.558Z,92579.66
2022-08-20T10:27:03.401Z,92573.81
2022-08-20T10:28:35.130Z,92568.91
2022-08-20T10:30:07.078Z,92562.44
2022-08-20T10:31:38.806Z,92570.81
2022-08-20T10:33:10.721Z,92563.69
2022-08-20T10:34:43.024Z,92558.44
2022-08-20T10:36:16.482Z,92560.59
2022-08-20T10:37:48.498Z,92555.34
2022-08-20T10:39:20.255Z,92550.25
2022-08-20T10:40:52.611Z,92549.72
2022-08-20T10:42:24.495Z,92547.28
2022-08-20T10:43:56.511Z,92537.38
2022-08-20T10:45:28.353Z,92544.34
2022-08-20T10:47:12.765Z,92540.44
2022-08-20T10:48:45.360Z,92539.28
2022-08-20T10:50:17.611Z,92535.81
2022-08-20T10:51:49.411Z,92531.75
2022-08-20T10:53:21.697Z,92546.88
2022-08-20T10:54:54.127Z,92539.00
2022-08-20T10:56:25.969Z,92538.09
2022-08-20T10:57:58.312Z,92541.66
2022-08-20T10:59:30.323Z,92536.56
2022-08-20T11:01:02.412Z,92529.28
2022-08-20T11:02:34.200Z,92531.28
2022-08-20T11:04:06.084Z,92524.75
2022-08-20T11:05:37.828Z,92522.75
2022-08-20T11:07:19.418Z,92524.75
2022-08-20T11:08:51.281Z,92520.25
2022-08-20T11:10:26.200Z,92516.72
2022-08-20T11:11:57.785Z,92511.44
2022-08-20T11:13:29.479Z,92514.59
2022-08-20T11:15:01.541Z,92508.78
2022-08-20T11:16:33.882Z,92508.69
2022-08-20T11:18:05.958Z,92508.91
2022-08-20T11:19:43.823Z,92501.03
2022-08-20T11:21:15.786Z,92505.22
2022-08-20T11:22:49.093Z,92498.88
2022-08-20T11:24:20.819Z,92494.53
2022-08-20T11:25:52.491Z,92495.31
2022-08-20T11:27:25.472Z,92503.97
2022-08-20T11:28:57.071Z,92494.06
2022-08-20T11:30:29.778Z,92490.66
2022-08-20T11:32:01.467Z,92491.28
2022-08-20T11:33:33.152Z,92487.84
2022-08-20T11:35:24.519Z,92490.03
2022-08-20T11:36:57.320Z,92486.28
2022-08-20T11:38:28.964Z,92483.66
2022-08-20T11:40:00.754Z,92485.38
2022-08-20T11:41:32.415Z,92483.34
2022-08-20T11:43:14.695Z,92481.72
2022-08-20T11:44:47.613Z,92471.00
2022-08-20T11:46:19.173Z,92467.53
2022-08-20T11:47:50.931Z,92463.47
2022-08-20T11:49:22.552Z,92466.41
2022-08-20T11:50:54.180Z,92464.53
2022-08-20T11:52:26.448Z,92464.69
2022-08-20T11:54:00.491Z,92470.84
2022-08-20T11:55:33.563Z,92473.28
2022-08-20T11:57:05.132Z,92468.50
2022-08-20T11:58:36.684Z,92465.91
2022-08-20T12:00:14.184Z,92462.72
2022-08-20T12:02:01.925Z,92453.16
2022-08-20T12:03:34.155Z,92453.50
2022-08-20T12:05:06.017Z,92452.59
2022-08-20T12:06:37.749Z,92453.66
2022-08-20T12:08:09.451Z,92454.63
2022-08-20T12:09:50.292Z,92447.19
2022-08-20T12:11:22.687Z,92440.28
2022-08-20T12:12:54.960Z,92447.53
2022-08-20T12:14:27.082Z,92447.72
2022-08-20T12:15:58.747Z,92444.47
2022-08-20T12:17:30.714Z,92448.03
2022-08-20T12:19:02.382Z,92443.22
2022-08-20T12:20:34.035Z,92448.34
2022-08-20T12:22:24.931Z,92443.84
2022-08-20T12:23:57.178Z,92442.19
2022-08-20T12:25:29.751Z,92448.34
2022-08-20T12:27:15.748Z,92443.09
2022-08-20T12:28:48.669Z,92450.97
2022-08-20T12:30:21.384Z,92445.88
2022-08-20T12:31:53.202Z,92451.25
2022-08-20T12:33:24.999Z,92454.34
2022-08-20T12:34:57.205Z,92460.25
2022-08-20T12:36:28.915Z,92459.78
2022-08-20T12:38:05.146Z,92469.56
2022-08-20T12:39:40.526Z,92464.91
2022-08-20T12:41:13.001Z,92475.31
2022-08-20T12:42:45.264Z,92479.34
2022-08-20T12:44:16.955Z,92482.91
2022-08-20T12:45:48.591Z,92477.94
2022-08-20T12:47:24.113Z,92481.34
2022-08-20T12:48:55.924Z,92489.84
2022-08-20T12:50:31.392Z,92482.56
2022-08-20T12:52:03.736Z,92475.59
2022-08-20T12:53:35.432Z,92475.13
2022-08-20T12:55:07.698Z,92474.03
2022-08-20T12:56:39.773Z,92467.22
2022-08-20T12:58:11.505Z,92460.09
2022-08-20T12:59:43.420Z,92455.47
2022-08-20T13:01:15.943Z,92438.56
2022-08-20T14:35:06.362Z,92455.00
2022-08-20T14:36:38.165Z,92446.03
2022-08-20T14:38:10.260Z,92426.47
2022-08-20T14:39:42.768Z,92405.72
2022-08-20T14:41:15.563Z,92389.72
2022-08-20T14:42:47.796Z,92373.22
2022-08-20T14:52:39.025Z,92368.22
2022-08-20T14:54:11.923Z,92375.59
2022-08-20T14:55:43.797Z,92376.69
2022-08-20T14:57:15.866Z,92376.63
2022-08-20T14:58:48.236Z,92377.78
2022-08-20T15:00:24.614Z,92381.56
2022-08-20T15:01:56.900Z,92379.84
2022-08-20T15:03:30.777Z,92384.34
2022-08-20T15:05:02.978Z,92398.69
2022-08-20T15:06:38.771Z,92410.22
2022-08-20T15:08:11.122Z,92417.88
2022-08-20T15:09:43.319Z,92426.78
2022-08-20T15:11:15.387Z,92436.84
2022-08-20T15:12:47.226Z,92453.56
2022-08-20T15:14:19.573Z,92465.13
2022-08-20T15:15:51.448Z,92467.75
2022-08-20T15:17:24.381Z,92466.16
2022-08-20T15:18:56.563Z,92460.28
2022-08-20T15:20:31.896Z,92463.03
2022-08-20T15:22:03.644Z,92459.97
2022-08-20T15:23:35.530Z,92451.00
2022-08-20T15:25:08.062Z,92452.34
2022-08-20T15:26:40.327Z,92453.19
2022-08-20T15:28:15.380Z,92452.34
2022-08-20T15:29:51.374Z,92453.47
2022-08-20T15:31:28.208Z,92451.38
2022-08-20T15:33:00.832Z,92453.66
2022-08-20T15:34:32.812Z,92453.53
2022-08-20T15:36:05.968Z,92453.84
2022-08-20T15:37:42.235Z,92448.66
2022-08-20T15:39:14.703Z,92446.81
2022-08-20T15:40:47.152Z,92434.66
2022-08-20T15:42:19.969Z,92438.53
2022-08-20T15:43:51.806Z,92436.91
2022-08-20T15:45:23.613Z,92423.41
2022-08-20T15:46:55.628Z,92428.59
2022-08-20T15:48:34.402Z,92431.75
2022-08-20T15:50:09.363Z,92438.41
2022-08-20T15:51:49.793Z,92448.59
2022-08-20T15:53:27.839Z,92455.66
2022-08-20T16:00:16.390Z,92437.94
2022-08-20T16:02:03.190Z,92434.56
2022-08-20T16:03:38.972Z,92433.06
2022-08-20T16:05:11.141Z,92429.78
2022-08-20T16:06:43.092Z,92428.31
2022-08-20T16:08:22.660Z,92417.41
2022-08-20T16:10:02.398Z,92421.38
2022-08-20T16:11:37.135Z,92426.47
2022-08-20T16:13:10.609Z,92422.13
2022-08-20T16:14:43.025Z,92415.44
2022-08-20T16:16:17.046Z,92418.94
2022-08-20T16:18:12.102Z,92414.59
2022-08-20T16:19:55.847Z,92404.81
2022-08-20T16:21:32.085Z,92411.50
2022-08-20T16:23:04.622Z,92415.44
2022-08-20T16:24:36.522Z,92411.06
2022-08-20T16:26:26.907Z,92424.50
2022-08-20T16:28:11.350Z,92420.16
2022-08-20T16:30:03.556Z,92416.25
2022-08-20T16:31:47.259Z,92425.78
2022-08-20T16:33:30.485Z,92433.66
2022-08-20T16:35:03.995Z,92447.03
2022-08-20T16:36:38.145Z,92445.88
2022-08-20T16:38:12.856Z,92448.66
2022-08-20T16:40:03.686Z,92445.59
2022-08-20T16:41:38.378Z,92433.88
2022-08-20T16:43:10.839Z,92422.56
2022-08-20T16:44:43.566Z,92411.69
2022-08-20T16:46:19.439Z,92414.09
2022-08-20T16:47:51.877Z,92434.56
2022-08-20T16:49:23.704Z,92462.03
2022-08-20T16:50:56.881Z,92475.41
2022-08-20T16:52:28.790Z,92478.94
2022-08-20T16:54:01.241Z,92482.97
2022-08-20T16:55:33.623Z,92494.34
2022-08-20T16:57:05.814Z,92494.72
2022-08-20T16:58:37.662Z,92502.97
2022-08-20T17:00:14.963Z,92521.81
2022-08-20T17:02:10.146Z,92532.81
2022-08-20T17:03:49.772Z,92532.50
2022-08-20T17:05:22.791Z,92543.16
2022-08-20T17:06:55.566Z,92532.28
2022-08-20T17:08:28.574Z,92533.84
2022-08-20T17:10:18.592Z,92532.28
2022-08-20T17:11:50.524Z,92538.97
2022-08-20T17:13:24.012Z,92537.44
2022-08-20T17:15:00.441Z,92543.34
2022-08-20T17:16:40.921Z,92541.44
2022-08-20T17:18:25.987Z,92551.69
2022-08-20T17:19:58.998Z,92560.72
2022-08-20T17:21:33.106Z,92580.69
2022-08-20T17:23:18.585Z,92613.94
2022-08-20T17:24:50.594Z,92626.41
2022-08-20T17:26:25.422Z,92633.03
2022-08-20T17:27:57.915Z,92665.09
2022-08-20T17:29:31.600Z,92680.66
2022-08-20T17:31:03.881Z,92691.59
2022-08-20T17:32:35.872Z,92715.09
2022-08-20T17:34:14.892Z,92719.41
2022-08-20T17:35:55.276Z,92730.28
2022-08-20T17:37:28.421Z,92731.75
2022-08-20T17:39:05.558Z,92741.78
2022-08-20T17:40:47.299Z,92746.41
2022-08-20T17:42:25.522Z,92758.72
2022-08-20T17:43:58.763Z,92762.94
2022-08-20T17:45:41.434Z,92760.53
2022-08-20T17:47:17.702Z,92775.56
2022-08-20T17:48:53.050Z,92783.19
2022-08-20T17:50:31.168Z,92786.22
2022-08-20T17:52:05.558Z,92785.31
2022-08-20T17:53:40.733Z,92768.84
2022-08-20T17:55:14.935Z,92760.47
2022-08-20T17:56:48.815Z,92756.91
2022-08-20T17:58:21.283Z,92767.00
2022-08-20T18:00:02.543Z,92778.66
2022-08-20T18:01:36.016Z,92791.22
2022-08-20T18:03:17.160Z,92800.25
2022-08-20T18:04:49.741Z,92819.16
2022-08-20T18:06:38.550Z,92832.50
2022-08-20T18:08:30.726Z,92849.06
2022-08-20T18:10:22.125Z,92851.13
2022-08-20T18:12:03.609Z,92864.50
2022-08-20T18:13:36.117Z,92856.03
2022-08-20T18:15:32.397Z,92856.03
2022-08-20T18:17:23.772Z,92856.03
2022-08-20T18:19:22.015Z,92855.22
2022-08-20T18:21:11.771Z,92859.47
2022-08-20T18:22:48.013Z,92863.03
2022-08-20T18:24:21.488Z,92869.28
2022-08-20T18:25:58.514Z,92848.56
2022-08-20T18:27:36.935Z,92855.22
2022-08-20T18:29:13.307Z,92870.13
2022-08-20T18:31:01.624Z,92872.81
2022-08-20T18:32:36.554Z,92885.28
2022-08-20T18:34:12.727Z,92879.81
2022-08-20T18:35:46.437Z,92865.97
2022-08-20T18:37:18.343Z,92857.63
2022-08-20T18:39:16.269Z,92857.84
2022-08-20T18:40:52.130Z,92853.88
2022-08-20T18:42:30.155Z,92828.84
2022-08-20T18:44:12.691Z,92813.53
2022-08-20T18:45:45.219Z,92796.72
2022-08-20T18:47:20.250Z,92797.13
2022-08-20T18:48:54.349Z,92806.06
2022-08-20T18:50:39.700Z,92796.25
2022-08-20T18:52:13.340Z,92794.22
2022-08-20T18:53:51.879Z,92781.31
2022-08-20T18:55:29.618Z,92773.06
2022-08-20T18:57:05.717Z,92776.81
2022-08-20T18:58:56.845Z,92766.63
2022-08-20T19:00:32.250Z,92757.13
2022-08-20T19:02:14.472Z,92752.34
2022-08-20T19:03:47.182Z,92737.47
2022-08-20T19:05:23.769Z,92739.25
2022-08-20T19:07:05.517Z,92746.59
2022-08-20T19:08:49.500Z,92752.78
2022-08-20T19:10:28.209Z,92760.53
2022-08-20T19:12:03.047Z,92745.38
2022-08-20T19:13:37.671Z,92743.88
2022-08-20T19:15:14.395Z,92741.63
2022-08-20T19:16:48.082Z,92731.50
2022-08-20T19:18:26.896Z,92730.31
2022-08-20T19:20:01.847Z,92714.72
2022-08-20T19:21:37.279Z,92720.84
2022-08-20T19:23:17.112Z,92720.75
2022-08-20T19:24:53.084Z,92719.94
2022-08-20T19:26:29.311Z,92726.25
2022-08-20T19:28:02.924Z,92734.88
2022-08-20T19:29:37.935Z,92732.66
2022-08-20T19:31:10.781Z,92730.31
2022-08-20T19:32:51.393Z,92716.78
2022-08-20T19:34:24.600Z,92723.84
2022-08-20T19:35:56.551Z,92720.34
2022-08-20T19:37:39.777Z,92713.78
2022-08-20T19:39:21.191Z,92712.28
2022-08-20T19:41:10.904Z,92707.97
2022-08-20T19:42:43.531Z,92710.00
2022-08-20T19:44:24.048Z,92714.34
2022-08-20T19:45:55.780Z,92704.28
2022-08-20T19:47:27.549Z,92712.53
2022-08-20T19:48:59.268Z,92720.72
2022-08-20T19:50:42.852Z,92725.06
2022-08-20T19:52:29.709Z,92723.91
2022-08-20T19:54:01.281Z,92723.91
2022-08-20T19:55:33.914Z,92721.97
2022-08-20T19:57:07.056Z,92727.84
2022-08-20T19:58:39.396Z,92741.84
2022-08-20T20:00:12.633Z,92755.78
2022-08-20T20:01:51.934Z,92767.66
2022-08-20T20:03:27.980Z,92767.78
2022-08-20T20:05:00.134Z,92757.06
2022-08-20T20:06:36.657Z,92761.28
2022-08-20T20:08:08.311Z,92756.13
2022-08-20T20:09:40.218Z,92755.69
2022-08-20T20:11:16.188Z,92750.66
2022-08-20T20:12:47.790Z,92734.00
2022-08-20T20:14:22.504Z,92733.59
2022-08-20T20:15:55.213Z,92729.72